sensor_id;sensor_type;location;lat;lon;timestamp;P1;durP1;ratioP1;P2;durP2;ratioP2
24261;SDS011;12385;51.412;5.540;2024-01-11T00:00:47;60.65;;;27.98;;
24261;SDS011;12385;51.412;5.540;2024-01-11T00:03:15;54.35;;;26.90;;
24261;SDS011;12385;51.412;5.540;2024-01-11T00:05:41;56.67;;;26.98;;
24261;SDS011;12385;51.412;5.540;2024-01-11T00:08:07;57.42;;;27.10;;
24261;SDS011;12385;51.412;5.540;2024-01-11T00:10:33;54.00;;;27.73;;
24261;SDS011;12385;51.412;5.540;2024-01-11T00:12:59;53.85;;;27.65;;
24261;SDS011;12385;51.412;5.540;2024-01-11T00:15:24;58.10;;;27.73;;
24261;SDS011;12385;51.412;5.540;2024-01-11T00:17:50;56.05;;;26.70;;
24261;SDS011;12385;51.412;5.540;2024-01-11T00:20:16;56.97;;;27.98;;
24261;SDS011;12385;51.412;5.540;2024-01-11T00:22:42;60.55;;;28.02;;
24261;SDS011;12385;51.412;5.540;2024-01-11T00:25:11;55.45;;;27.60;;
24261;SDS011;12385;51.412;5.540;2024-01-11T00:27:37;55.63;;;26.98;;
24261;SDS011;12385;51.412;5.540;2024-01-11T00:30:03;54.63;;;27.17;;
24261;SDS011;12385;51.412;5.540;2024-01-11T00:32:30;60.13;;;27.75;;
24261;SDS011;12385;51.412;5.540;2024-01-11T00:34:55;58.92;;;27.80;;
24261;SDS011;12385;51.412;5.540;2024-01-11T00:37:21;58.25;;;26.92;;
24261;SDS011;12385;51.412;5.540;2024-01-11T00:39:47;59.60;;;29.27;;
24261;SDS011;12385;51.412;5.540;2024-01-11T00:42:15;58.08;;;28.17;;
24261;SDS011;12385;51.412;5.540;2024-01-11T00:44:41;56.13;;;28.38;;
24261;SDS011;12385;51.412;5.540;2024-01-11T00:49:36;59.72;;;27.52;;
24261;SDS011;12385;51.412;5.540;2024-01-11T00:52:02;60.42;;;29.02;;
24261;SDS011;12385;51.412;5.540;2024-01-11T00:54:28;55.83;;;27.88;;
24261;SDS011;12385;51.412;5.540;2024-01-11T00:56:53;64.95;;;28.77;;
24261;SDS011;12385;51.412;5.540;2024-01-11T00:59:19;59.45;;;29.58;;
24261;SDS011;12385;51.412;5.540;2024-01-11T01:01:49;64.95;;;28.35;;
24261;SDS011;12385;51.412;5.540;2024-01-11T01:04:15;60.13;;;28.23;;
24261;SDS011;12385;51.412;5.540;2024-01-11T01:06:41;62.90;;;29.60;;
24261;SDS011;12385;51.412;5.540;2024-01-11T01:09:07;57.60;;;28.13;;
24261;SDS011;12385;51.412;5.540;2024-01-11T01:11:33;62.17;;;30.52;;
24261;SDS011;12385;51.412;5.540;2024-01-11T01:14:00;58.80;;;29.05;;
24261;SDS011;12385;51.412;5.540;2024-01-11T01:16:25;60.10;;;29.48;;
24261;SDS011;12385;51.412;5.540;2024-01-11T01:18:51;58.83;;;28.30;;
24261;SDS011;12385;51.412;5.540;2024-01-11T01:21:17;63.47;;;30.10;;
24261;SDS011;12385;51.412;5.540;2024-01-11T01:23:45;59.95;;;28.73;;
24261;SDS011;12385;51.412;5.540;2024-01-11T01:26:10;56.13;;;28.20;;
24261;SDS011;12385;51.412;5.540;2024-01-11T01:28:36;55.40;;;28.65;;
24261;SDS011;12385;51.412;5.540;2024-01-11T01:31:02;63.55;;;30.30;;
24261;SDS011;12385;51.412;5.540;2024-01-11T01:33:27;57.53;;;27.63;;
24261;SDS011;12385;51.412;5.540;2024-01-11T01:35:53;58.45;;;28.33;;
24261;SDS011;12385;51.412;5.540;2024-01-11T01:38:18;61.13;;;29.77;;
24261;SDS011;12385;51.412;5.540;2024-01-11T01:40:44;61.00;;;29.85;;
24261;SDS011;12385;51.412;5.540;2024-01-11T01:43:10;71.43;;;30.80;;
24261;SDS011;12385;51.412;5.540;2024-01-11T01:45:40;61.90;;;30.45;;
24261;SDS011;12385;51.412;5.540;2024-01-11T01:48:05;59.10;;;28.63;;
24261;SDS011;12385;51.412;5.540;2024-01-11T01:50:32;64.15;;;30.08;;
24261;SDS011;12385;51.412;5.540;2024-01-11T01:52:58;62.03;;;29.27;;
24261;SDS011;12385;51.412;5.540;2024-01-11T01:55:25;59.42;;;29.70;;
24261;SDS011;12385;51.412;5.540;2024-01-11T01:57:53;59.13;;;30.13;;
24261;SDS011;12385;51.412;5.540;2024-01-11T02:00:19;56.00;;;27.83;;
24261;SDS011;12385;51.412;5.540;2024-01-11T02:02:45;64.05;;;29.70;;
24261;SDS011;12385;51.412;5.540;2024-01-11T02:05:15;59.22;;;30.02;;
24261;SDS011;12385;51.412;5.540;2024-01-11T02:07:45;61.13;;;29.23;;
24261;SDS011;12385;51.412;5.540;2024-01-11T02:10:11;60.07;;;29.17;;
24261;SDS011;12385;51.412;5.540;2024-01-11T02:12:37;59.95;;;29.30;;
24261;SDS011;12385;51.412;5.540;2024-01-11T02:15:04;62.47;;;29.85;;
24261;SDS011;12385;51.412;5.540;2024-01-11T02:17:30;70.47;;;31.60;;
24261;SDS011;12385;51.412;5.540;2024-01-11T02:19:57;59.15;;;29.10;;
24261;SDS011;12385;51.412;5.540;2024-01-11T02:22:32;60.97;;;28.98;;
24261;SDS011;12385;51.412;5.540;2024-01-11T02:25:01;65.65;;;30.42;;
24261;SDS011;12385;51.412;5.540;2024-01-11T02:27:27;64.10;;;30.25;;
24261;SDS011;12385;51.412;5.540;2024-01-11T02:29:52;65.47;;;31.27;;
24261;SDS011;12385;51.412;5.540;2024-01-11T02:32:18;59.22;;;29.48;;
24261;SDS011;12385;51.412;5.540;2024-01-11T02:34:45;60.17;;;28.45;;
24261;SDS011;12385;51.412;5.540;2024-01-11T02:37:11;63.80;;;31.55;;
24261;SDS011;12385;51.412;5.540;2024-01-11T02:39:37;66.95;;;30.98;;
24261;SDS011;12385;51.412;5.540;2024-01-11T02:42:03;62.33;;;30.15;;
24261;SDS011;12385;51.412;5.540;2024-01-11T02:44:29;65.45;;;30.25;;
24261;SDS011;12385;51.412;5.540;2024-01-11T02:46:54;62.28;;;30.67;;
24261;SDS011;12385;51.412;5.540;2024-01-11T02:49:20;62.28;;;29.80;;
24261;SDS011;12385;51.412;5.540;2024-01-11T02:51:45;64.32;;;30.42;;
24261;SDS011;12385;51.412;5.540;2024-01-11T02:54:11;64.95;;;30.88;;
24261;SDS011;12385;51.412;5.540;2024-01-11T02:56:37;64.38;;;31.02;;
24261;SDS011;12385;51.412;5.540;2024-01-11T02:59:03;65.88;;;31.88;;
24261;SDS011;12385;51.412;5.540;2024-01-11T03:01:28;70.65;;;31.55;;
24261;SDS011;12385;51.412;5.540;2024-01-11T03:03:54;67.22;;;31.38;;
24261;SDS011;12385;51.412;5.540;2024-01-11T03:06:21;61.78;;;30.80;;
24261;SDS011;12385;51.412;5.540;2024-01-11T03:08:50;65.15;;;31.83;;
24261;SDS011;12385;51.412;5.540;2024-01-11T03:11:15;64.65;;;30.75;;
24261;SDS011;12385;51.412;5.540;2024-01-11T03:13:42;64.63;;;31.67;;
24261;SDS011;12385;51.412;5.540;2024-01-11T03:16:12;67.63;;;31.58;;
24261;SDS011;12385;51.412;5.540;2024-01-11T03:18:40;66.85;;;33.10;;
24261;SDS011;12385;51.412;5.540;2024-01-11T03:21:06;63.47;;;31.15;;
24261;SDS011;12385;51.412;5.540;2024-01-11T03:23:31;68.95;;;31.65;;
24261;SDS011;12385;51.412;5.540;2024-01-11T03:25:57;65.55;;;30.80;;
24261;SDS011;12385;51.412;5.540;2024-01-11T03:28:23;66.22;;;31.15;;
24261;SDS011;12385;51.412;5.540;2024-01-11T03:30:48;66.40;;;31.92;;
24261;SDS011;12385;51.412;5.540;2024-01-11T03:33:17;68.95;;;32.40;;
24261;SDS011;12385;51.412;5.540;2024-01-11T03:35:46;70.70;;;32.60;;
24261;SDS011;12385;51.412;5.540;2024-01-11T03:38:11;66.28;;;31.38;;
24261;SDS011;12385;51.412;5.540;2024-01-11T03:40:37;64.88;;;32.15;;
24261;SDS011;12385;51.412;5.540;2024-01-11T03:43:03;70.55;;;33.50;;
24261;SDS011;12385;51.412;5.540;2024-01-11T03:45:29;68.25;;;33.40;;
24261;SDS011;12385;51.412;5.540;2024-01-11T03:47:54;71.60;;;32.25;;
24261;SDS011;12385;51.412;5.540;2024-01-11T03:50:20;71.22;;;31.50;;
24261;SDS011;12385;51.412;5.540;2024-01-11T03:52:46;71.88;;;32.80;;
24261;SDS011;12385;51.412;5.540;2024-01-11T03:55:11;73.18;;;32.92;;
24261;SDS011;12385;51.412;5.540;2024-01-11T03:57:41;66.20;;;32.40;;
24261;SDS011;12385;51.412;5.540;2024-01-11T04:00:11;70.18;;;32.25;;
24261;SDS011;12385;51.412;5.540;2024-01-11T04:02:41;69.18;;;31.90;;
24261;SDS011;12385;51.412;5.540;2024-01-11T04:05:07;68.60;;;31.92;;
24261;SDS011;12385;51.412;5.540;2024-01-11T04:07:33;67.82;;;32.90;;
24261;SDS011;12385;51.412;5.540;2024-01-11T04:09:59;69.03;;;32.90;;
24261;SDS011;12385;51.412;5.540;2024-01-11T04:12:25;71.82;;;34.05;;
24261;SDS011;12385;51.412;5.540;2024-01-11T04:14:51;68.35;;;32.95;;
24261;SDS011;12385;51.412;5.540;2024-01-11T04:17:16;68.40;;;33.50;;
24261;SDS011;12385;51.412;5.540;2024-01-11T04:19:42;71.05;;;33.95;;
24261;SDS011;12385;51.412;5.540;2024-01-11T04:24:41;66.55;;;32.17;;
24261;SDS011;12385;51.412;5.540;2024-01-11T04:27:10;69.20;;;32.45;;
24261;SDS011;12385;51.412;5.540;2024-01-11T04:29:37;70.18;;;32.80;;
24261;SDS011;12385;51.412;5.540;2024-01-11T04:32:02;72.38;;;33.05;;
24261;SDS011;12385;51.412;5.540;2024-01-11T04:34:28;72.47;;;34.05;;
24261;SDS011;12385;51.412;5.540;2024-01-11T04:36:54;68.55;;;32.65;;
24261;SDS011;12385;51.412;5.540;2024-01-11T04:39:20;67.68;;;33.13;;
24261;SDS011;12385;51.412;5.540;2024-01-11T04:41:46;69.50;;;34.05;;
24261;SDS011;12385;51.412;5.540;2024-01-11T04:44:11;69.78;;;33.90;;
24261;SDS011;12385;51.412;5.540;2024-01-11T04:46:37;72.70;;;34.35;;
24261;SDS011;12385;51.412;5.540;2024-01-11T04:49:05;69.25;;;33.20;;
24261;SDS011;12385;51.412;5.540;2024-01-11T04:51:31;70.32;;;33.42;;
24261;SDS011;12385;51.412;5.540;2024-01-11T04:53:56;72.75;;;32.88;;
24261;SDS011;12385;51.412;5.540;2024-01-11T04:56:22;68.85;;;33.10;;
24261;SDS011;12385;51.412;5.540;2024-01-11T04:58:48;70.03;;;33.25;;
24261;SDS011;12385;51.412;5.540;2024-01-11T05:01:16;71.45;;;34.50;;
24261;SDS011;12385;51.412;5.540;2024-01-11T05:03:49;66.25;;;33.17;;
24261;SDS011;12385;51.412;5.540;2024-01-11T05:06:16;69.90;;;32.47;;
24261;SDS011;12385;51.412;5.540;2024-01-11T05:08:43;72.63;;;32.30;;
24261;SDS011;12385;51.412;5.540;2024-01-11T05:13:42;63.88;;;31.48;;
24261;SDS011;12385;51.412;5.540;2024-01-11T05:16:23;71.78;;;33.65;;
24261;SDS011;12385;51.412;5.540;2024-01-11T05:18:50;70.25;;;33.38;;
24261;SDS011;12385;51.412;5.540;2024-01-11T05:21:17;68.72;;;32.67;;
24261;SDS011;12385;51.412;5.540;2024-01-11T05:23:46;71.38;;;32.92;;
24261;SDS011;12385;51.412;5.540;2024-01-11T05:26:16;73.03;;;33.63;;
24261;SDS011;12385;51.412;5.540;2024-01-11T05:28:47;77.47;;;34.30;;
24261;SDS011;12385;51.412;5.540;2024-01-11T05:31:13;81.22;;;35.55;;
24261;SDS011;12385;51.412;5.540;2024-01-11T05:33:41;71.60;;;33.33;;
24261;SDS011;12385;51.412;5.540;2024-01-11T05:36:07;70.18;;;33.60;;
24261;SDS011;12385;51.412;5.540;2024-01-11T05:38:33;72.70;;;35.05;;
24261;SDS011;12385;51.412;5.540;2024-01-11T05:41:00;77.32;;;36.40;;
24261;SDS011;12385;51.412;5.540;2024-01-11T05:43:25;78.13;;;35.22;;
24261;SDS011;12385;51.412;5.540;2024-01-11T05:45:53;76.72;;;35.65;;
24261;SDS011;12385;51.412;5.540;2024-01-11T05:48:20;79.70;;;34.47;;
24261;SDS011;12385;51.412;5.540;2024-01-11T05:50:46;74.93;;;34.38;;
24261;SDS011;12385;51.412;5.540;2024-01-11T05:53:16;75.90;;;35.22;;
24261;SDS011;12385;51.412;5.540;2024-01-11T05:55:45;78.65;;;34.85;;
24261;SDS011;12385;51.412;5.540;2024-01-11T05:58:11;71.78;;;33.42;;
24261;SDS011;12385;51.412;5.540;2024-01-11T06:00:36;72.95;;;33.33;;
24261;SDS011;12385;51.412;5.540;2024-01-11T06:03:02;69.45;;;34.83;;
24261;SDS011;12385;51.412;5.540;2024-01-11T06:05:29;67.80;;;33.33;;
24261;SDS011;12385;51.412;5.540;2024-01-11T06:07:55;74.22;;;34.78;;
24261;SDS011;12385;51.412;5.540;2024-01-11T06:10:20;69.70;;;33.40;;
24261;SDS011;12385;51.412;5.540;2024-01-11T06:12:46;74.45;;;35.17;;
24261;SDS011;12385;51.412;5.540;2024-01-11T06:15:12;69.18;;;34.13;;
24261;SDS011;12385;51.412;5.540;2024-01-11T06:17:37;73.82;;;33.58;;
24261;SDS011;12385;51.412;5.540;2024-01-11T06:20:03;72.70;;;34.80;;
24261;SDS011;12385;51.412;5.540;2024-01-11T06:22:30;73.55;;;34.00;;
24261;SDS011;12385;51.412;5.540;2024-01-11T06:24:55;68.47;;;33.10;;
24261;SDS011;12385;51.412;5.540;2024-01-11T06:27:22;77.60;;;34.15;;
24261;SDS011;12385;51.412;5.540;2024-01-11T06:29:48;72.97;;;34.40;;
24261;SDS011;12385;51.412;5.540;2024-01-11T06:32:16;70.15;;;34.60;;
24261;SDS011;12385;51.412;5.540;2024-01-11T06:34:42;71.10;;;34.50;;
24261;SDS011;12385;51.412;5.540;2024-01-11T06:37:11;69.45;;;33.97;;
24261;SDS011;12385;51.412;5.540;2024-01-11T06:39:37;69.88;;;33.55;;
24261;SDS011;12385;51.412;5.540;2024-01-11T06:42:02;75.38;;;34.53;;
24261;SDS011;12385;51.412;5.540;2024-01-11T06:44:28;73.15;;;34.50;;
24261;SDS011;12385;51.412;5.540;2024-01-11T06:46:54;75.85;;;34.80;;
24261;SDS011;12385;51.412;5.540;2024-01-11T06:49:19;69.03;;;34.53;;
24261;SDS011;12385;51.412;5.540;2024-01-11T06:51:46;73.13;;;34.20;;
24261;SDS011;12385;51.412;5.540;2024-01-11T06:54:12;75.22;;;34.67;;
24261;SDS011;12385;51.412;5.540;2024-01-11T06:56:40;73.95;;;34.72;;
24261;SDS011;12385;51.412;5.540;2024-01-11T06:59:07;72.95;;;33.83;;
24261;SDS011;12385;51.412;5.540;2024-01-11T07:01:32;75.13;;;35.47;;
24261;SDS011;12385;51.412;5.540;2024-01-11T07:03:58;71.63;;;35.13;;
24261;SDS011;12385;51.412;5.540;2024-01-11T07:06:24;67.63;;;33.28;;
24261;SDS011;12385;51.412;5.540;2024-01-11T07:08:49;73.25;;;33.97;;
24261;SDS011;12385;51.412;5.540;2024-01-11T07:11:15;72.47;;;34.13;;
24261;SDS011;12385;51.412;5.540;2024-01-11T07:13:41;72.38;;;34.78;;
24261;SDS011;12385;51.412;5.540;2024-01-11T07:16:10;55.63;;;26.52;;
24261;SDS011;12385;51.412;5.540;2024-01-11T07:18:35;67.43;;;33.28;;
24261;SDS011;12385;51.412;5.540;2024-01-11T07:21:01;76.05;;;34.05;;
24261;SDS011;12385;51.412;5.540;2024-01-11T07:23:27;70.10;;;33.50;;
24261;SDS011;12385;51.412;5.540;2024-01-11T07:25:52;75.32;;;34.85;;
24261;SDS011;12385;51.412;5.540;2024-01-11T07:28:19;72.82;;;33.55;;
24261;SDS011;12385;51.412;5.540;2024-01-11T07:30:50;76.82;;;36.50;;
24261;SDS011;12385;51.412;5.540;2024-01-11T07:33:15;78.93;;;34.65;;
24261;SDS011;12385;51.412;5.540;2024-01-11T07:35:41;72.90;;;35.00;;
24261;SDS011;12385;51.412;5.540;2024-01-11T07:38:07;70.85;;;33.42;;
24261;SDS011;12385;51.412;5.540;2024-01-11T07:40:32;79.80;;;36.40;;
24261;SDS011;12385;51.412;5.540;2024-01-11T07:42:58;74.97;;;35.05;;
24261;SDS011;12385;51.412;5.540;2024-01-11T07:45:24;69.13;;;33.25;;
24261;SDS011;12385;51.412;5.540;2024-01-11T07:47:50;72.00;;;33.95;;
24261;SDS011;12385;51.412;5.540;2024-01-11T07:50:17;72.25;;;34.63;;
24261;SDS011;12385;51.412;5.540;2024-01-11T07:52:46;73.95;;;34.88;;
24261;SDS011;12385;51.412;5.540;2024-01-11T07:55:12;69.18;;;33.03;;
24261;SDS011;12385;51.412;5.540;2024-01-11T07:57:41;70.80;;;34.60;;
24261;SDS011;12385;51.412;5.540;2024-01-11T08:00:08;68.32;;;33.90;;
24261;SDS011;12385;51.412;5.540;2024-01-11T08:02:36;68.60;;;32.83;;
24261;SDS011;12385;51.412;5.540;2024-01-11T08:05:03;69.28;;;33.55;;
24261;SDS011;12385;51.412;5.540;2024-01-11T08:07:31;68.65;;;32.10;;
24261;SDS011;12385;51.412;5.540;2024-01-11T08:09:56;69.85;;;30.83;;
24261;SDS011;12385;51.412;5.540;2024-01-11T08:12:22;68.75;;;31.88;;
24261;SDS011;12385;51.412;5.540;2024-01-11T08:14:48;68.35;;;32.97;;
24261;SDS011;12385;51.412;5.540;2024-01-11T08:17:15;66.85;;;33.45;;
24261;SDS011;12385;51.412;5.540;2024-01-11T08:19:41;65.82;;;32.80;;
24261;SDS011;12385;51.412;5.540;2024-01-11T08:22:10;70.15;;;34.10;;
24261;SDS011;12385;51.412;5.540;2024-01-11T08:24:36;73.90;;;33.83;;
24261;SDS011;12385;51.412;5.540;2024-01-11T08:27:09;73.00;;;32.60;;
24261;SDS011;12385;51.412;5.540;2024-01-11T08:29:35;68.60;;;34.22;;
24261;SDS011;12385;51.412;5.540;2024-01-11T08:32:01;67.40;;;32.60;;
24261;SDS011;12385;51.412;5.540;2024-01-11T08:34:29;65.60;;;32.78;;
24261;SDS011;12385;51.412;5.540;2024-01-11T08:36:55;65.50;;;32.60;;
24261;SDS011;12385;51.412;5.540;2024-01-11T08:39:20;65.80;;;32.58;;
24261;SDS011;12385;51.412;5.540;2024-01-11T08:41:47;65.70;;;33.30;;
24261;SDS011;12385;51.412;5.540;2024-01-11T08:44:15;65.45;;;31.75;;
24261;SDS011;12385;51.412;5.540;2024-01-11T08:46:40;69.05;;;31.70;;
24261;SDS011;12385;51.412;5.540;2024-01-11T08:49:06;62.70;;;32.75;;
24261;SDS011;12385;51.412;5.540;2024-01-11T08:51:34;65.50;;;31.50;;
24261;SDS011;12385;51.412;5.540;2024-01-11T08:54:00;65.10;;;32.15;;
24261;SDS011;12385;51.412;5.540;2024-01-11T08:56:25;67.50;;;32.90;;
24261;SDS011;12385;51.412;5.540;2024-01-11T08:58:51;63.45;;;31.25;;
24261;SDS011;12385;51.412;5.540;2024-01-11T09:01:16;67.85;;;32.58;;
24261;SDS011;12385;51.412;5.540;2024-01-11T09:03:44;61.22;;;30.58;;
24261;SDS011;12385;51.412;5.540;2024-01-11T09:06:16;61.40;;;30.85;;
24261;SDS011;12385;51.412;5.540;2024-01-11T09:08:45;59.10;;;29.92;;
24261;SDS011;12385;51.412;5.540;2024-01-11T09:11:11;61.20;;;32.10;;
24261;SDS011;12385;51.412;5.540;2024-01-11T09:13:37;66.07;;;30.95;;
24261;SDS011;12385;51.412;5.540;2024-01-11T09:16:02;62.47;;;31.50;;
24261;SDS011;12385;51.412;5.540;2024-01-11T09:18:29;61.28;;;31.35;;
24261;SDS011;12385;51.412;5.540;2024-01-11T09:20:57;61.67;;;31.15;;
24261;SDS011;12385;51.412;5.540;2024-01-11T09:23:22;60.80;;;31.15;;
24261;SDS011;12385;51.412;5.540;2024-01-11T09:25:48;67.75;;;31.17;;
24261;SDS011;12385;51.412;5.540;2024-01-11T09:28:15;56.85;;;29.25;;
24261;SDS011;12385;51.412;5.540;2024-01-11T09:30:40;59.00;;;28.63;;
24261;SDS011;12385;51.412;5.540;2024-01-11T09:33:06;61.45;;;29.92;;
24261;SDS011;12385;51.412;5.540;2024-01-11T09:35:32;59.03;;;29.25;;
24261;SDS011;12385;51.412;5.540;2024-01-11T09:37:58;57.97;;;27.80;;
24261;SDS011;12385;51.412;5.540;2024-01-11T09:40:23;57.20;;;28.50;;
24261;SDS011;12385;51.412;5.540;2024-01-11T09:42:49;54.40;;;28.42;;
24261;SDS011;12385;51.412;5.540;2024-01-11T09:45:16;55.47;;;27.77;;
24261;SDS011;12385;51.412;5.540;2024-01-11T09:47:46;58.30;;;28.08;;
24261;SDS011;12385;51.412;5.540;2024-01-11T09:50:15;52.50;;;27.55;;
24261;SDS011;12385;51.412;5.540;2024-01-11T09:52:48;58.00;;;28.20;;
24261;SDS011;12385;51.412;5.540;2024-01-11T09:55:16;52.72;;;27.20;;
24261;SDS011;12385;51.412;5.540;2024-01-11T09:57:46;54.17;;;27.20;;
24261;SDS011;12385;51.412;5.540;2024-01-11T10:00:16;50.75;;;26.05;;
24261;SDS011;12385;51.412;5.540;2024-01-11T10:02:45;53.22;;;27.65;;
24261;SDS011;12385;51.412;5.540;2024-01-11T10:05:12;54.28;;;26.83;;
24261;SDS011;12385;51.412;5.540;2024-01-11T10:07:40;51.97;;;27.27;;
24261;SDS011;12385;51.412;5.540;2024-01-11T10:10:06;54.05;;;27.00;;
24261;SDS011;12385;51.412;5.540;2024-01-11T10:12:36;58.15;;;28.05;;
24261;SDS011;12385;51.412;5.540;2024-01-11T10:15:06;59.63;;;27.20;;
24261;SDS011;12385;51.412;5.540;2024-01-11T10:17:35;52.80;;;26.73;;
24261;SDS011;12385;51.412;5.540;2024-01-11T10:20:11;52.90;;;26.55;;
24261;SDS011;12385;51.412;5.540;2024-01-11T10:22:40;40.17;;;19.70;;
24261;SDS011;12385;51.412;5.540;2024-01-11T10:25:15;53.70;;;26.42;;
24261;SDS011;12385;51.412;5.540;2024-01-11T10:27:43;52.47;;;27.40;;
24261;SDS011;12385;51.412;5.540;2024-01-11T10:30:11;49.70;;;25.80;;
24261;SDS011;12385;51.412;5.540;2024-01-11T10:32:51;51.88;;;26.80;;
24261;SDS011;12385;51.412;5.540;2024-01-11T10:35:16;54.90;;;27.63;;
24261;SDS011;12385;51.412;5.540;2024-01-11T10:40:15;54.42;;;26.20;;
24261;SDS011;12385;51.412;5.540;2024-01-11T10:42:52;47.85;;;24.95;;
24261;SDS011;12385;51.412;5.540;2024-01-11T10:45:19;53.83;;;25.67;;
24261;SDS011;12385;51.412;5.540;2024-01-11T10:50:22;54.13;;;28.00;;
24261;SDS011;12385;51.412;5.540;2024-01-11T10:52:59;54.45;;;26.63;;
24261;SDS011;12385;51.412;5.540;2024-01-11T10:55:46;50.88;;;26.55;;
24261;SDS011;12385;51.412;5.540;2024-01-11T10:58:17;63.80;;;26.30;;
24261;SDS011;12385;51.412;5.540;2024-01-11T11:00:45;54.88;;;28.02;;
24261;SDS011;12385;51.412;5.540;2024-01-11T11:03:15;56.80;;;26.70;;
24261;SDS011;12385;51.412;5.540;2024-01-11T11:08:16;53.00;;;26.25;;
24261;SDS011;12385;51.412;5.540;2024-01-11T11:13:15;44.97;;;25.02;;
24261;SDS011;12385;51.412;5.540;2024-01-11T11:15:46;51.10;;;26.30;;
24261;SDS011;12385;51.412;5.540;2024-01-11T11:18:16;50.80;;;25.45;;
24261;SDS011;12385;51.412;5.540;2024-01-11T11:20:45;55.08;;;26.35;;
24261;SDS011;12385;51.412;5.540;2024-01-11T11:23:13;48.53;;;24.60;;
24261;SDS011;12385;51.412;5.540;2024-01-11T11:25:47;44.15;;;24.17;;
24261;SDS011;12385;51.412;5.540;2024-01-11T11:28:15;46.22;;;24.58;;
24261;SDS011;12385;51.412;5.540;2024-01-11T11:30:43;49.30;;;25.13;;
24261;SDS011;12385;51.412;5.540;2024-01-11T11:33:17;47.70;;;24.45;;
24261;SDS011;12385;51.412;5.540;2024-01-11T11:35:47;46.03;;;25.00;;
24261;SDS011;12385;51.412;5.540;2024-01-11T11:38:23;49.10;;;25.58;;
24261;SDS011;12385;51.412;5.540;2024-01-11T11:40:51;46.35;;;24.73;;
24261;SDS011;12385;51.412;5.540;2024-01-11T11:43:19;48.15;;;25.02;;
24261;SDS011;12385;51.412;5.540;2024-01-11T11:45:46;51.53;;;24.77;;
24261;SDS011;12385;51.412;5.540;2024-01-11T11:51:01;51.55;;;25.30;;
24261;SDS011;12385;51.412;5.540;2024-01-11T11:53:29;51.35;;;25.67;;
24261;SDS011;12385;51.412;5.540;2024-01-11T11:55:59;49.05;;;26.33;;
24261;SDS011;12385;51.412;5.540;2024-01-11T11:58:27;43.90;;;24.92;;
24261;SDS011;12385;51.412;5.540;2024-01-11T12:00:54;45.15;;;25.05;;
24261;SDS011;12385;51.412;5.540;2024-01-11T12:03:23;46.45;;;25.10;;
24261;SDS011;12385;51.412;5.540;2024-01-11T12:06:02;49.58;;;25.13;;
24261;SDS011;12385;51.412;5.540;2024-01-11T12:08:28;46.67;;;24.38;;
24261;SDS011;12385;51.412;5.540;2024-01-11T12:10:54;46.45;;;25.25;;
24261;SDS011;12385;51.412;5.540;2024-01-11T12:13:20;49.60;;;25.50;;
24261;SDS011;12385;51.412;5.540;2024-01-11T12:15:46;48.05;;;25.95;;
24261;SDS011;12385;51.412;5.540;2024-01-11T12:18:15;52.15;;;25.45;;
24261;SDS011;12385;51.412;5.540;2024-01-11T12:20:40;50.65;;;25.50;;
24261;SDS011;12385;51.412;5.540;2024-01-11T12:23:06;50.90;;;26.42;;
24261;SDS011;12385;51.412;5.540;2024-01-11T12:25:32;50.40;;;26.10;;
24261;SDS011;12385;51.412;5.540;2024-01-11T12:27:58;54.70;;;26.92;;
24261;SDS011;12385;51.412;5.540;2024-01-11T12:30:25;51.63;;;26.95;;
24261;SDS011;12385;51.412;5.540;2024-01-11T12:32:51;50.28;;;25.95;;
24261;SDS011;12385;51.412;5.540;2024-01-11T12:35:21;47.80;;;25.40;;
24261;SDS011;12385;51.412;5.540;2024-01-11T12:40:21;53.80;;;27.35;;
24261;SDS011;12385;51.412;5.540;2024-01-11T12:42:48;49.70;;;27.05;;
24261;SDS011;12385;51.412;5.540;2024-01-11T12:45:15;49.70;;;27.40;;
24261;SDS011;12385;51.412;5.540;2024-01-11T12:47:42;53.55;;;27.65;;
24261;SDS011;12385;51.412;5.540;2024-01-11T12:50:11;51.50;;;27.45;;
24261;SDS011;12385;51.412;5.540;2024-01-11T12:52:40;52.65;;;27.95;;
24261;SDS011;12385;51.412;5.540;2024-01-11T12:55:07;53.28;;;28.17;;
24261;SDS011;12385;51.412;5.540;2024-01-11T12:57:46;58.05;;;28.45;;
24261;SDS011;12385;51.412;5.540;2024-01-11T13:00:14;55.45;;;28.42;;
24261;SDS011;12385;51.412;5.540;2024-01-11T13:05:15;52.63;;;27.02;;
24261;SDS011;12385;51.412;5.540;2024-01-11T13:07:41;53.83;;;28.77;;
24261;SDS011;12385;51.412;5.540;2024-01-11T13:10:11;48.42;;;27.02;;
24261;SDS011;12385;51.412;5.540;2024-01-11T13:12:37;48.25;;;27.23;;
24261;SDS011;12385;51.412;5.540;2024-01-11T13:15:02;50.78;;;27.65;;
24261;SDS011;12385;51.412;5.540;2024-01-11T13:17:29;52.03;;;27.88;;
24261;SDS011;12385;51.412;5.540;2024-01-11T13:19:55;51.45;;;28.42;;
24261;SDS011;12385;51.412;5.540;2024-01-11T13:22:21;52.25;;;28.55;;
24261;SDS011;12385;51.412;5.540;2024-01-11T13:24:46;49.78;;;28.13;;
24261;SDS011;12385;51.412;5.540;2024-01-11T13:27:14;49.38;;;28.27;;
24261;SDS011;12385;51.412;5.540;2024-01-11T13:29:40;58.28;;;29.08;;
24261;SDS011;12385;51.412;5.540;2024-01-11T13:32:07;55.28;;;30.85;;
24261;SDS011;12385;51.412;5.540;2024-01-11T13:34:32;56.85;;;29.60;;
24261;SDS011;12385;51.412;5.540;2024-01-11T13:36:58;55.63;;;30.40;;
24261;SDS011;12385;51.412;5.540;2024-01-11T13:39:24;50.28;;;29.63;;
24261;SDS011;12385;51.412;5.540;2024-01-11T13:41:50;55.95;;;29.58;;
24261;SDS011;12385;51.412;5.540;2024-01-11T13:44:16;50.50;;;29.20;;
24261;SDS011;12385;51.412;5.540;2024-01-11T13:46:41;50.55;;;29.73;;
24261;SDS011;12385;51.412;5.540;2024-01-11T13:49:09;54.20;;;30.08;;
24261;SDS011;12385;51.412;5.540;2024-01-11T13:51:36;55.40;;;30.23;;
24261;SDS011;12385;51.412;5.540;2024-01-11T13:54:02;49.60;;;28.13;;
24261;SDS011;12385;51.412;5.540;2024-01-11T13:56:28;49.45;;;29.00;;
24261;SDS011;12385;51.412;5.540;2024-01-11T13:58:54;54.05;;;28.88;;
24261;SDS011;12385;51.412;5.540;2024-01-11T14:01:20;54.13;;;30.27;;
24261;SDS011;12385;51.412;5.540;2024-01-11T14:03:46;49.38;;;29.52;;
24261;SDS011;12385;51.412;5.540;2024-01-11T14:06:18;52.38;;;30.15;;
24261;SDS011;12385;51.412;5.540;2024-01-11T14:08:45;55.35;;;30.50;;
24261;SDS011;12385;51.412;5.540;2024-01-11T14:11:10;53.72;;;29.15;;
24261;SDS011;12385;51.412;5.540;2024-01-11T14:13:37;48.00;;;28.67;;
24261;SDS011;12385;51.412;5.540;2024-01-11T14:16:03;48.08;;;28.45;;
24261;SDS011;12385;51.412;5.540;2024-01-11T14:18:29;44.92;;;28.20;;
24261;SDS011;12385;51.412;5.540;2024-01-11T14:20:55;47.95;;;28.95;;
24261;SDS011;12385;51.412;5.540;2024-01-11T14:23:21;47.25;;;28.10;;
24261;SDS011;12385;51.412;5.540;2024-01-11T14:25:46;45.42;;;27.88;;
24261;SDS011;12385;51.412;5.540;2024-01-11T14:28:15;45.85;;;28.48;;
24261;SDS011;12385;51.412;5.540;2024-01-11T14:30:40;42.92;;;27.10;;
24261;SDS011;12385;51.412;5.540;2024-01-11T14:33:06;44.10;;;27.90;;
24261;SDS011;12385;51.412;5.540;2024-01-11T14:35:32;41.15;;;26.30;;
24261;SDS011;12385;51.412;5.540;2024-01-11T14:37:57;42.92;;;26.25;;
24261;SDS011;12385;51.412;5.540;2024-01-11T14:40:23;37.17;;;23.00;;
24261;SDS011;12385;51.412;5.540;2024-01-11T14:42:49;30.17;;;18.52;;
24261;SDS011;12385;51.412;5.540;2024-01-11T14:45:15;28.20;;;15.88;;